sensor_id;sensor_type;location;lat;lon;timestamp;P1;durP1;ratioP1;P2;durP2;ratioP2
29848;SDS011;16728;50.832;5.590;2022-08-19T00:02:40;25.25;;;22.92;;
29848;SDS011;16728;50.832;5.590;2022-08-19T00:05:50;23.30;;;21.02;;
29848;SDS011;16728;50.832;5.590;2022-08-19T00:08:52;25.50;;;23.02;;
29848;SDS011;16728;50.832;5.590;2022-08-19T00:11:54;26.33;;;23.77;;
29848;SDS011;16728;50.832;5.590;2022-08-19T00:17:59;28.15;;;25.50;;
29848;SDS011;16728;50.832;5.590;2022-08-19T00:21:01;26.70;;;24.10;;
29848;SDS011;16728;50.832;5.590;2022-08-19T00:24:03;27.65;;;24.90;;
29848;SDS011;16728;50.832;5.590;2022-08-19T00:27:05;26.88;;;24.25;;
29848;SDS011;16728;50.832;5.590;2022-08-19T00:30:26;26.92;;;24.23;;
29848;SDS011;16728;50.832;5.590;2022-08-19T00:33:29;26.90;;;24.20;;
29848;SDS011;16728;50.832;5.590;2022-08-19T00:36:35;26.23;;;23.60;;
29848;SDS011;16728;50.832;5.590;2022-08-19T00:42:40;25.42;;;23.10;;
29848;SDS011;16728;50.832;5.590;2022-08-19T00:45:42;25.95;;;23.45;;
29848;SDS011;16728;50.832;5.590;2022-08-19T00:48:45;27.17;;;24.38;;
29848;SDS011;16728;50.832;5.590;2022-08-19T00:51:51;27.40;;;24.60;;
29848;SDS011;16728;50.832;5.590;2022-08-19T00:54:59;29.00;;;26.23;;
29848;SDS011;16728;50.832;5.590;2022-08-19T00:58:04;27.17;;;24.58;;
29848;SDS011;16728;50.832;5.590;2022-08-19T01:01:11;32.00;;;29.00;;
29848;SDS011;16728;50.832;5.590;2022-08-19T01:04:15;31.90;;;28.70;;
29848;SDS011;16728;50.832;5.590;2022-08-19T01:07:16;30.98;;;28.00;;
29848;SDS011;16728;50.832;5.590;2022-08-19T01:10:21;30.52;;;27.63;;
29848;SDS011;16728;50.832;5.590;2022-08-19T01:13:30;30.67;;;27.73;;
29848;SDS011;16728;50.832;5.590;2022-08-19T01:16:50;32.17;;;29.10;;
29848;SDS011;16728;50.832;5.590;2022-08-19T01:19:55;31.92;;;28.83;;
29848;SDS011;16728;50.832;5.590;2022-08-19T01:22:58;32.38;;;29.33;;
29848;SDS011;16728;50.832;5.590;2022-08-19T01:29:02;31.33;;;28.13;;
29848;SDS011;16728;50.832;5.590;2022-08-19T01:32:05;29.65;;;26.75;;
29848;SDS011;16728;50.832;5.590;2022-08-19T01:38:34;30.95;;;27.73;;
29848;SDS011;16728;50.832;5.590;2022-08-19T01:41:44;30.98;;;28.08;;
29848;SDS011;16728;50.832;5.590;2022-08-19T01:44:47;29.57;;;26.67;;
29848;SDS011;16728;50.832;5.590;2022-08-19T01:47:50;31.55;;;28.25;;
29848;SDS011;16728;50.832;5.590;2022-08-19T01:51:02;30.65;;;27.35;;
29848;SDS011;16728;50.832;5.590;2022-08-19T01:54:05;30.57;;;27.47;;
29848;SDS011;16728;50.832;5.590;2022-08-19T01:57:08;31.27;;;27.98;;
29848;SDS011;16728;50.832;5.590;2022-08-19T02:00:23;30.73;;;27.23;;
29848;SDS011;16728;50.832;5.590;2022-08-19T02:03:27;31.33;;;28.25;;
29848;SDS011;16728;50.832;5.590;2022-08-19T02:06:30;32.97;;;28.27;;
29848;SDS011;16728;50.832;5.590;2022-08-19T02:09:32;31.80;;;28.50;;
29848;SDS011;16728;50.832;5.590;2022-08-19T02:12:34;32.00;;;28.90;;
29848;SDS011;16728;50.832;5.590;2022-08-19T02:15:37;32.03;;;28.75;;
29848;SDS011;16728;50.832;5.590;2022-08-19T02:18:39;33.92;;;30.45;;
29848;SDS011;16728;50.832;5.590;2022-08-19T02:21:41;33.50;;;30.08;;
29848;SDS011;16728;50.832;5.590;2022-08-19T02:24:44;33.20;;;29.70;;
29848;SDS011;16728;50.832;5.590;2022-08-19T02:27:46;32.95;;;29.45;;
29848;SDS011;16728;50.832;5.590;2022-08-19T02:30:50;32.25;;;29.13;;
29848;SDS011;16728;50.832;5.590;2022-08-19T02:33:55;33.35;;;29.58;;
29848;SDS011;16728;50.832;5.590;2022-08-19T02:36:57;33.08;;;29.63;;
29848;SDS011;16728;50.832;5.590;2022-08-19T02:40:04;32.25;;;28.90;;
29848;SDS011;16728;50.832;5.590;2022-08-19T02:43:12;33.08;;;29.55;;
29848;SDS011;16728;50.832;5.590;2022-08-19T02:46:16;32.92;;;29.55;;
29848;SDS011;16728;50.832;5.590;2022-08-19T02:49:22;33.20;;;29.63;;
29848;SDS011;16728;50.832;5.590;2022-08-19T02:52:24;33.63;;;29.27;;
29848;SDS011;16728;50.832;5.590;2022-08-19T02:55:26;35.00;;;29.70;;
29848;SDS011;16728;50.832;5.590;2022-08-19T02:58:28;37.63;;;29.75;;
29848;SDS011;16728;50.832;5.590;2022-08-19T03:01:31;38.13;;;29.83;;
29848;SDS011;16728;50.832;5.590;2022-08-19T03:04:33;40.47;;;29.60;;
29848;SDS011;16728;50.832;5.590;2022-08-19T03:07:35;34.25;;;29.80;;
29848;SDS011;16728;50.832;5.590;2022-08-19T03:10:42;33.43;;;29.80;;
29848;SDS011;16728;50.832;5.590;2022-08-19T03:13:46;34.97;;;31.27;;
29848;SDS011;16728;50.832;5.590;2022-08-19T03:16:51;34.38;;;30.63;;
29848;SDS011;16728;50.832;5.590;2022-08-19T03:19:53;36.30;;;31.70;;
29848;SDS011;16728;50.832;5.590;2022-08-19T03:22:55;37.42;;;33.22;;
29848;SDS011;16728;50.832;5.590;2022-08-19T03:25:58;40.17;;;31.40;;
29848;SDS011;16728;50.832;5.590;2022-08-19T03:29:16;38.40;;;32.75;;
29848;SDS011;16728;50.832;5.590;2022-08-19T03:32:31;42.35;;;34.08;;
29848;SDS011;16728;50.832;5.590;2022-08-19T03:35:33;44.40;;;35.60;;
29848;SDS011;16728;50.832;5.590;2022-08-19T03:38:39;40.70;;;34.03;;
29848;SDS011;16728;50.832;5.590;2022-08-19T03:41:47;41.38;;;35.50;;
29848;SDS011;16728;50.832;5.590;2022-08-19T03:48:13;44.25;;;34.85;;
29848;SDS011;16728;50.832;5.590;2022-08-19T03:51:19;45.40;;;35.70;;
29848;SDS011;16728;50.832;5.590;2022-08-19T03:54:31;46.63;;;37.08;;
29848;SDS011;16728;50.832;5.590;2022-08-19T03:57:33;47.97;;;37.08;;
29848;SDS011;16728;50.832;5.590;2022-08-19T04:00:35;44.60;;;35.85;;
29848;SDS011;16728;50.832;5.590;2022-08-19T04:03:38;46.60;;;37.67;;
29848;SDS011;16728;50.832;5.590;2022-08-19T04:06:41;48.50;;;37.92;;
29848;SDS011;16728;50.832;5.590;2022-08-19T04:09:45;52.28;;;38.55;;
29848;SDS011;16728;50.832;5.590;2022-08-19T04:12:46;52.50;;;38.28;;
29848;SDS011;16728;50.832;5.590;2022-08-19T04:15:49;49.25;;;39.65;;
29848;SDS011;16728;50.832;5.590;2022-08-19T04:18:51;52.13;;;40.92;;
29848;SDS011;16728;50.832;5.590;2022-08-19T04:21:53;53.63;;;40.30;;
29848;SDS011;16728;50.832;5.590;2022-08-19T04:24:56;54.10;;;39.42;;
29848;SDS011;16728;50.832;5.590;2022-08-19T04:27:58;51.78;;;40.15;;
29848;SDS011;16728;50.832;5.590;2022-08-19T04:31:00;54.40;;;39.67;;
29848;SDS011;16728;50.832;5.590;2022-08-19T04:34:03;53.33;;;38.92;;
29848;SDS011;16728;50.832;5.590;2022-08-19T04:37:08;51.75;;;38.45;;
29848;SDS011;16728;50.832;5.590;2022-08-19T04:40:15;51.78;;;39.30;;
29848;SDS011;16728;50.832;5.590;2022-08-19T04:43:36;53.78;;;39.65;;
29848;SDS011;16728;50.832;5.590;2022-08-19T04:46:40;57.00;;;40.65;;
29848;SDS011;16728;50.832;5.590;2022-08-19T04:49:57;52.80;;;40.00;;
29848;SDS011;16728;50.832;5.590;2022-08-19T04:52:59;53.28;;;39.80;;
29848;SDS011;16728;50.832;5.590;2022-08-19T04:56:04;52.13;;;38.17;;
29848;SDS011;16728;50.832;5.590;2022-08-19T04:59:09;52.53;;;39.63;;
29848;SDS011;16728;50.832;5.590;2022-08-19T05:02:11;55.03;;;38.75;;
29848;SDS011;16728;50.832;5.590;2022-08-19T05:05:13;56.42;;;39.45;;
29848;SDS011;16728;50.832;5.590;2022-08-19T05:08:17;52.43;;;37.97;;
29848;SDS011;16728;50.832;5.590;2022-08-19T05:11:32;54.30;;;39.95;;
29848;SDS011;16728;50.832;5.590;2022-08-19T05:14:40;57.30;;;38.83;;
29848;SDS011;16728;50.832;5.590;2022-08-19T05:17:42;55.15;;;38.53;;
29848;SDS011;16728;50.832;5.590;2022-08-19T05:21:10;52.08;;;39.65;;
29848;SDS011;16728;50.832;5.590;2022-08-19T05:24:32;52.42;;;41.08;;
29848;SDS011;16728;50.832;5.590;2022-08-19T05:27:35;56.38;;;42.08;;
29848;SDS011;16728;50.832;5.590;2022-08-19T05:30:37;55.50;;;41.47;;
29848;SDS011;16728;50.832;5.590;2022-08-19T05:33:48;54.50;;;42.70;;
29848;SDS011;16728;50.832;5.590;2022-08-19T05:36:51;59.80;;;43.00;;
29848;SDS011;16728;50.832;5.590;2022-08-19T05:39:57;55.60;;;42.67;;
29848;SDS011;16728;50.832;5.590;2022-08-19T05:42:59;60.78;;;44.85;;
29848;SDS011;16728;50.832;5.590;2022-08-19T05:46:01;58.97;;;44.67;;
29848;SDS011;16728;50.832;5.590;2022-08-19T05:49:06;64.57;;;44.83;;
29848;SDS011;16728;50.832;5.590;2022-08-19T05:52:09;59.95;;;44.15;;
29848;SDS011;16728;50.832;5.590;2022-08-19T05:55:12;58.97;;;44.75;;
29848;SDS011;16728;50.832;5.590;2022-08-19T05:58:14;64.50;;;46.28;;
29848;SDS011;16728;50.832;5.590;2022-08-19T06:01:17;59.63;;;44.30;;
29848;SDS011;16728;50.832;5.590;2022-08-19T06:04:19;65.13;;;44.55;;
29848;SDS011;16728;50.832;5.590;2022-08-19T06:07:23;54.17;;;40.35;;
29848;SDS011;16728;50.832;5.590;2022-08-19T06:10:26;51.25;;;39.53;;
29848;SDS011;16728;50.832;5.590;2022-08-19T06:13:27;53.13;;;39.22;;
29848;SDS011;16728;50.832;5.590;2022-08-19T06:16:35;51.20;;;38.35;;
29848;SDS011;16728;50.832;5.590;2022-08-19T06:19:41;49.40;;;37.88;;
29848;SDS011;16728;50.832;5.590;2022-08-19T06:22:45;46.45;;;36.55;;
29848;SDS011;16728;50.832;5.590;2022-08-19T06:25:50;48.20;;;36.83;;
29848;SDS011;16728;50.832;5.590;2022-08-19T06:28:51;50.22;;;36.33;;
29848;SDS011;16728;50.832;5.590;2022-08-19T06:31:54;48.17;;;35.53;;
29848;SDS011;16728;50.832;5.590;2022-08-19T06:34:59;44.72;;;34.90;;
29848;SDS011;16728;50.832;5.590;2022-08-19T06:38:00;43.08;;;33.60;;
29848;SDS011;16728;50.832;5.590;2022-08-19T06:41:04;48.70;;;34.78;;
29848;SDS011;16728;50.832;5.590;2022-08-19T06:44:08;42.15;;;31.80;;
29848;SDS011;16728;50.832;5.590;2022-08-19T06:47:14;40.90;;;32.45;;
29848;SDS011;16728;50.832;5.590;2022-08-19T06:50:28;43.15;;;32.40;;
29848;SDS011;16728;50.832;5.590;2022-08-19T06:53:31;39.08;;;30.48;;
29848;SDS011;16728;50.832;5.590;2022-08-19T06:56:36;39.30;;;30.98;;
29848;SDS011;16728;50.832;5.590;2022-08-19T06:59:38;41.97;;;30.47;;
29848;SDS011;16728;50.832;5.590;2022-08-19T07:02:43;42.92;;;30.63;;
29848;SDS011;16728;50.832;5.590;2022-08-19T07:05:56;35.55;;;28.60;;
29848;SDS011;16728;50.832;5.590;2022-08-19T07:08:58;40.20;;;29.88;;
29848;SDS011;16728;50.832;5.590;2022-08-19T07:12:00;38.95;;;29.05;;
29848;SDS011;16728;50.832;5.590;2022-08-19T07:15:07;38.17;;;29.10;;
29848;SDS011;16728;50.832;5.590;2022-08-19T07:18:12;33.75;;;25.70;;
29848;SDS011;16728;50.832;5.590;2022-08-19T07:21:18;34.40;;;26.15;;
29848;SDS011;16728;50.832;5.590;2022-08-19T07:24:23;32.00;;;25.27;;
29848;SDS011;16728;50.832;5.590;2022-08-19T07:27:31;36.20;;;23.92;;
29848;SDS011;16728;50.832;5.590;2022-08-19T07:30:35;31.23;;;21.85;;
29848;SDS011;16728;50.832;5.590;2022-08-19T07:33:38;34.13;;;24.27;;
29848;SDS011;16728;50.832;5.590;2022-08-19T07:36:44;36.58;;;24.13;;
29848;SDS011;16728;50.832;5.590;2022-08-19T07:39:46;35.67;;;24.45;;
29848;SDS011;16728;50.832;5.590;2022-08-19T07:45:54;33.20;;;23.05;;
29848;SDS011;16728;50.832;5.590;2022-08-19T07:48:59;25.70;;;19.73;;
29848;SDS011;16728;50.832;5.590;2022-08-19T07:52:04;29.43;;;20.57;;
29848;SDS011;16728;50.832;5.590;2022-08-19T07:55:08;28.27;;;19.77;;
29848;SDS011;16728;50.832;5.590;2022-08-19T07:58:32;25.48;;;19.75;;
29848;SDS011;16728;50.832;5.590;2022-08-19T08:01:37;23.15;;;18.33;;
29848;SDS011;16728;50.832;5.590;2022-08-19T08:04:42;24.75;;;18.50;;
29848;SDS011;16728;50.832;5.590;2022-08-19T08:08:02;26.33;;;18.48;;
29848;SDS011;16728;50.832;5.590;2022-08-19T08:11:27;28.33;;;17.67;;
29848;SDS011;16728;50.832;5.590;2022-08-19T08:14:31;24.45;;;18.67;;
29848;SDS011;16728;50.832;5.590;2022-08-19T08:17:36;28.45;;;20.45;;
29848;SDS011;16728;50.832;5.590;2022-08-19T08:20:51;26.80;;;20.10;;
29848;SDS011;16728;50.832;5.590;2022-08-19T08:23:53;28.60;;;20.80;;
29848;SDS011;16728;50.832;5.590;2022-08-19T08:26:57;29.30;;;21.02;;
29848;SDS011;16728;50.832;5.590;2022-08-19T08:30:00;29.65;;;21.70;;
29848;SDS011;16728;50.832;5.590;2022-08-19T08:33:03;30.60;;;21.02;;
29848;SDS011;16728;50.832;5.590;2022-08-19T08:36:05;30.63;;;20.95;;
29848;SDS011;16728;50.832;5.590;2022-08-19T08:39:08;30.35;;;21.80;;
29848;SDS011;16728;50.832;5.590;2022-08-19T08:42:13;27.70;;;21.80;;
29848;SDS011;16728;50.832;5.590;2022-08-19T08:48:49;30.85;;;22.83;;
29848;SDS011;16728;50.832;5.590;2022-08-19T08:52:13;31.85;;;22.63;;
29848;SDS011;16728;50.832;5.590;2022-08-19T08:55:26;28.58;;;21.55;;
29848;SDS011;16728;50.832;5.590;2022-08-19T08:58:46;28.73;;;23.48;;
29848;SDS011;16728;50.832;5.590;2022-08-19T09:01:55;31.08;;;21.55;;
29848;SDS011;16728;50.832;5.590;2022-08-19T09:04:57;32.35;;;24.48;;
29848;SDS011;16728;50.832;5.590;2022-08-19T09:08:05;29.90;;;23.02;;
29848;SDS011;16728;50.832;5.590;2022-08-19T09:11:28;23.40;;;15.82;;
29848;SDS011;16728;50.832;5.590;2022-08-19T09:14:57;22.52;;;13.75;;
29848;SDS011;16728;50.832;5.590;2022-08-19T09:18:03;24.60;;;16.00;;
29848;SDS011;16728;50.832;5.590;2022-08-19T09:21:07;25.83;;;17.67;;
29848;SDS011;16728;50.832;5.590;2022-08-19T09:24:10;26.60;;;17.70;;
29848;SDS011;16728;50.832;5.590;2022-08-19T09:27:13;24.23;;;17.58;;
29848;SDS011;16728;50.832;5.590;2022-08-19T09:30:20;25.33;;;18.65;;
29848;SDS011;16728;50.832;5.590;2022-08-19T09:33:25;30.50;;;20.02;;
29848;SDS011;16728;50.832;5.590;2022-08-19T09:36:27;29.00;;;19.27;;
29848;SDS011;16728;50.832;5.590;2022-08-19T09:39:35;30.60;;;19.88;;
29848;SDS011;16728;50.832;5.590;2022-08-19T09:42:39;30.13;;;20.15;;
29848;SDS011;16728;50.832;5.590;2022-08-19T09:45:52;25.02;;;17.38;;
29848;SDS011;16728;50.832;5.590;2022-08-19T09:48:56;26.55;;;17.83;;
29848;SDS011;16728;50.832;5.590;2022-08-19T09:52:10;28.88;;;16.58;;
29848;SDS011;16728;50.832;5.590;2022-08-19T09:55:13;24.20;;;17.30;;
29848;SDS011;16728;50.832;5.590;2022-08-19T09:58:18;25.10;;;18.25;;
29848;SDS011;16728;50.832;5.590;2022-08-19T10:01:27;26.15;;;17.25;;
29848;SDS011;16728;50.832;5.590;2022-08-19T10:04:30;24.92;;;15.25;;
29848;SDS011;16728;50.832;5.590;2022-08-19T10:08:20;23.05;;;16.63;;
29848;SDS011;16728;50.832;5.590;2022-08-19T10:11:26;24.20;;;15.80;;
29848;SDS011;16728;50.832;5.590;2022-08-19T10:14:39;21.10;;;15.43;;
29848;SDS011;16728;50.832;5.590;2022-08-19T10:17:41;18.65;;;15.60;;
29848;SDS011;16728;50.832;5.590;2022-08-19T10:21:02;19.55;;;15.27;;
29848;SDS011;16728;50.832;5.590;2022-08-19T10:24:11;19.73;;;16.42;;
29848;SDS011;16728;50.832;5.590;2022-08-19T10:27:14;26.92;;;16.08;;
29848;SDS011;16728;50.832;5.590;2022-08-19T10:30:16;18.00;;;14.95;;
29848;SDS011;16728;50.832;5.590;2022-08-19T10:33:20;16.02;;;12.60;;
29848;SDS011;16728;50.832;5.590;2022-08-19T10:36:42;15.18;;;10.68;;
29848;SDS011;16728;50.832;5.590;2022-08-19T10:39:56;11.30;;;9.13;;
29848;SDS011;16728;50.832;5.590;2022-08-19T10:42:59;14.05;;;8.90;;
29848;SDS011;16728;50.832;5.590;2022-08-19T10:46:01;9.63;;;7.03;;
29848;SDS011;16728;50.832;5.590;2022-08-19T10:49:04;6.38;;;5.03;;
29848;SDS011;16728;50.832;5.590;2022-08-19T10:52:06;6.00;;;4.82;;
29848;SDS011;16728;50.832;5.590;2022-08-19T10:55:33;5.85;;;5.25;;
29848;SDS011;16728;50.832;5.590;2022-08-19T10:58:58;8.45;;;5.15;;
29848;SDS011;16728;50.832;5.590;2022-08-19T11:02:01;6.60;;;4.20;;
29848;SDS011;16728;50.832;5.590;2022-08-19T11:05:05;5.93;;;4.65;;
29848;SDS011;16728;50.832;5.590;2022-08-19T11:08:13;5.43;;;4.55;;
29848;SDS011;16728;50.832;5.590;2022-08-19T11:11:23;7.57;;;4.93;;
29848;SDS011;16728;50.832;5.590;2022-08-19T11:14:26;8.25;;;4.15;;
29848;SDS011;16728;50.832;5.590;2022-08-19T11:17:32;6.05;;;4.55;;
29848;SDS011;16728;50.832;5.590;2022-08-19T11:20:34;7.85;;;4.78;;
29848;SDS011;16728;50.832;5.590;2022-08-19T11:23:36;7.43;;;4.68;;
29848;SDS011;16728;50.832;5.590;2022-08-19T11:26:39;7.63;;;4.80;;
29848;SDS011;16728;50.832;5.590;2022-08-19T11:29:42;5.80;;;4.32;;
29848;SDS011;16728;50.832;5.590;2022-08-19T11:32:44;9.20;;;4.38;;
29848;SDS011;16728;50.832;5.590;2022-08-19T11:35:49;5.63;;;3.63;;
29848;SDS011;16728;50.832;5.590;2022-08-19T11:38:51;5.05;;;4.20;;
29848;SDS011;16728;50.832;5.590;2022-08-19T11:41:58;8.80;;;4.30;;
29848;SDS011;16728;50.832;5.590;2022-08-19T11:45:00;7.13;;;4.38;;
29848;SDS011;16728;50.832;5.590;2022-08-19T11:48:05;6.20;;;4.20;;
29848;SDS011;16728;50.832;5.590;2022-08-19T11:51:08;8.98;;;4.40;;
29848;SDS011;16728;50.832;5.590;2022-08-19T11:54:16;7.00;;;4.55;;
29848;SDS011;16728;50.832;5.590;2022-08-19T11:57:18;5.38;;;4.43;;
29848;SDS011;16728;50.832;5.590;2022-08-19T12:03:39;5.50;;;4.68;;
29848;SDS011;16728;50.832;5.590;2022-08-19T12:06:41;4.75;;;4.20;;
29848;SDS011;16728;50.832;5.590;2022-08-19T12:09:43;5.80;;;3.83;;
29848;SDS011;16728;50.832;5.590;2022-08-19T12:12:48;5.47;;;4.05;;
29848;SDS011;16728;50.832;5.590;2022-08-19T12:19:33;8.25;;;4.57;;
29848;SDS011;16728;50.832;5.590;2022-08-19T12:22:35;6.07;;;3.83;;
29848;SDS011;16728;50.832;5.590;2022-08-19T12:25:42;6.53;;;4.53;;
29848;SDS011;16728;50.832;5.590;2022-08-19T12:28:53;10.57;;;4.70;;
29848;SDS011;16728;50.832;5.590;2022-08-19T12:31:56;8.00;;;4.30;;
29848;SDS011;16728;50.832;5.590;2022-08-19T12:35:06;8.32;;;4.13;;
29848;SDS011;16728;50.832;5.590;2022-08-19T12:38:10;5.35;;;3.80;;
29848;SDS011;16728;50.832;5.590;2022-08-19T12:41:13;10.10;;;4.72;;
29848;SDS011;16728;50.832;5.590;2022-08-19T12:44:18;6.43;;;3.88;;
29848;SDS011;16728;50.832;5.590;2022-08-19T12:47:30;10.02;;;4.18;;
29848;SDS011;16728;50.832;5.590;2022-08-19T12:50:33;5.55;;;4.03;;
29848;SDS011;16728;50.832;5.590;2022-08-19T12:53:35;7.50;;;4.20;;
29848;SDS011;16728;50.832;5.590;2022-08-19T12:56:39;7.18;;;4.50;;
29848;SDS011;16728;50.832;5.590;2022-08-19T13:06:14;6.72;;;4.43;;
29848;SDS011;16728;50.832;5.590;2022-08-19T13:32:29;5.22;;;2.88;;
29848;SDS011;16728;50.832;5.590;2022-08-19T13:35:51;5.38;;;3.50;;
29848;SDS011;16728;50.832;5.590;2022-08-19T13:38:58;5.82;;;3.38;;
29848;SDS011;16728;50.832;5.590;2022-08-19T13:42:00;4.20;;;3.80;;
29848;SDS011;16728;50.832;5.590;2022-08-19T13:45:14;3.88;;;3.50;;
29848;SDS011;16728;50.832;5.590;2022-08-19T13:48:19;8.10;;;4.70;;
29848;SDS011;16728;50.832;5.590;2022-08-19T13:51:21;6.78;;;4.20;;
29848;SDS011;16728;50.832;5.590;2022-08-19T13:57:51;5.57;;;3.90;;
29848;SDS011;16728;50.832;5.590;2022-08-19T14:00:58;5.88;;;4.07;;
29848;SDS011;16728;50.832;5.590;2022-08-19T14:04:01;9.17;;;4.13;;
29848;SDS011;16728;50.832;5.590;2022-08-19T14:10:12;5.22;;;4.50;;
29848;SDS011;16728;50.832;5.590;2022-08-19T14:13:16;5.95;;;4.93;;
29848;SDS011;16728;50.832;5.590;2022-08-19T14:16:21;6.10;;;4.70;;
29848;SDS011;16728;50.832;5.590;2022-08-19T14:19:22;7.22;;;4.70;;
29848;SDS011;16728;50.832;5.590;2022-08-19T14:22:30;5.47;;;4.07;;
29848;SDS011;16728;50.832;5.590;2022-08-19T14:25:32;6.78;;;4.38;;
29848;SDS011;16728;50.832;5.590;2022-08-19T14:28:44;7.22;;;4.18;;
29848;SDS011;16728;50.832;5.590;2022-08-19T14:31:46;7.10;;;4.35;;
29848;SDS011;16728;50.832;5.590;2022-08-19T14:34:48;7.30;;;4.72;;
29848;SDS011;16728;50.832;5.590;2022-08-19T14:37:51;5.47;;;4.47;;
29848;SDS011;16728;50.832;5.590;2022-08-19T14:41:11;6.68;;;5.50;;
29848;SDS011;16728;50.832;5.590;2022-08-19T14:44:13;7.78;;;5.32;;
29848;SDS011;16728;50.832;5.590;2022-08-19T14:47:15;7.65;;;5.88;;
29848;SDS011;16728;50.832;5.590;2022-08-19T14:50:17;6.95;;;5.82;;
29848;SDS011;16728;50.832;5.590;2022-08-19T14:53:20;7.85;;;5.22;;
29848;SDS011;16728;50.832;5.590;2022-08-19T14:56:27;8.20;;;5.75;;
29848;SDS011;16728;50.832;5.590;2022-08-19T14:59:30;7.35;;;4.97;;
29848;SDS011;16728;50.832;5.590;2022-08-19T15:02:32;8.95;;;5.40;;
29848;SDS011;16728;50.832;5.590;2022-08-19T15:08:39;7.60;;;5.37;;
29848;SDS011;16728;50.832;5.590;2022-08-19T15:11:47;6.82;;;5.10;;
29848;SDS011;16728;50.832;5.590;2022-08-19T15:14:53;5.25;;;4.75;;
29848;SDS011;16728;50.832;5.590;2022-08-19T15:17:57;8.07;;;4.82;;
29848;SDS011;16728;50.832;5.590;2022-08-19T15:21:03;7.50;;;4.00;;
29848;SDS011;16728;50.832;5.590;2022-08-19T15:24:06;5.22;;;3.47;;
29848;SDS011;16728;50.832;5.590;2022-08-19T15:27:08;3.72;;;2.72;;
29848;SDS011;16728;50.832;5.590;2022-08-19T16:04:42;3.65;;;3.30;;
29848;SDS011;16728;50.832;5.590;2022-08-19T16:08:02;5.90;;;3.70;;
29848;SDS011;16728;50.832;5.590;2022-08-19T16:11:05;7.22;;;4.22;;
29848;SDS011;16728;50.832;5.590;2022-08-19T16:14:07;5.25;;;3.92;;
29848;SDS011;16728;50.832;5.590;2022-08-19T16:17:09;4.95;;;3.90;;
29848;SDS011;16728;50.832;5.590;2022-08-19T16:20:13;3.92;;;3.63;;
29848;SDS011;16728;50.832;5.590;2022-08-19T16:23:17;4.35;;;3.40;;
29848;SDS011;16728;50.832;5.590;2022-08-19T16:26:19;6.65;;;3.40;;
29848;SDS011;16728;50.832;5.590;2022-08-19T16:29:21;4.60;;;3.28;;
29848;SDS011;16728;50.832;5.590;2022-08-19T16:32:41;3.42;;;2.88;;
29848;SDS011;16728;50.832;5.590;2022-08-19T16:35:44;3.97;;;2.83;;
29848;SDS011;16728;50.832;5.590;2022-08-19T16:38:58;4.22;;;2.78;;
29848;SDS011;16728;50.832;5.590;2022-08-19T16:42:10;3.17;;;2.88;;
29848;SDS011;16728;50.832;5.590;2022-08-19T16:45:15;3.85;;;2.60;;
29848;SDS011;16728;50.832;5.590;2022-08-19T16:48:21;4.40;;;2.85;;
29848;SDS011;16728;50.832;5.590;2022-08-19T16:51:26;5.85;;;2.67;;
29848;SDS011;16728;50.832;5.590;2022-08-19T16:54:28;4.03;;;2.50;;
29848;SDS011;16728;50.832;5.590;2022-08-19T16:57:33;2.90;;;2.17;;
29848;SDS011;16728;50.832;5.590;2022-08-19T17:00:35;3.70;;;2.20;;
29848;SDS011;16728;50.832;5.590;2022-08-19T17:03:37;4.40;;;2.70;;
29848;SDS011;16728;50.832;5.590;2022-08-19T17:06:40;5.72;;;3.13;;
29848;SDS011;16728;50.832;5.590;2022-08-19T17:09:43;3.53;;;2.47;;
29848;SDS011;16728;50.832;5.590;2022-08-19T17:12:46;4.63;;;2.70;;
29848;SDS011;16728;50.832;5.590;2022-08-19T17:15:48;3.13;;;1.90;;
29848;SDS011;16728;50.832;5.590;2022-08-19T17:18:51;2.13;;;1.77;;
29848;SDS011;16728;50.832;5.590;2022-08-19T17:21:55;3.28;;;2.15;;
29848;SDS011;16728;50.832;5.590;2022-08-19T17:24:58;2.67;;;2.45;;
29848;SDS011;16728;50.832;5.590;2022-08-19T17:28:10;4.57;;;2.38;;
29848;SDS011;16728;50.832;5.590;2022-08-19T17:31:14;5.82;;;2.72;;
29848;SDS011;16728;50.832;5.590;2022-08-19T17:34:16;3.67;;;2.75;;
29848;SDS011;16728;50.832;5.590;2022-08-19T17:37:18;6.25;;;2.10;;
29848;SDS011;16728;50.832;5.590;2022-08-19T17:40:20;2.67;;;1.83;;
29848;SDS011;16728;50.832;5.590;2022-08-19T17:43:24;4.28;;;2.83;;
29848;SDS011;16728;50.832;5.590;2022-08-19T17:46:34;2.55;;;2.35;;
29848;SDS011;16728;50.832;5.590;2022-08-19T17:49:36;2.55;;;2.08;;
29848;SDS011;16728;50.832;5.590;2022-08-19T17:52:38;3.45;;;2.03;;
29848;SDS011;16728;50.832;5.590;2022-08-19T17:55:40;5.63;;;2.08;;
29848;SDS011;16728;50.832;5.590;2022-08-19T18:02:03;4.18;;;2.42;;
29848;SDS011;16728;50.832;5.590;2022-08-19T18:05:05;3.75;;;2.30;;
29848;SDS011;16728;50.832;5.590;2022-08-19T18:08:07;3.30;;;1.77;;
29848;SDS011;16728;50.832;5.590;2022-08-19T18:11:11;1.85;;;1.70;;
29848;SDS011;16728;50.832;5.590;2022-08-19T18:14:13;1.42;;;1.30;;
29848;SDS011;16728;50.832;5.590;2022-08-19T18:17:15;4.35;;;1.30;;
29848;SDS011;16728;50.832;5.590;2022-08-19T18:20:19;1.65;;;1.35;;
29848;SDS011;16728;50.832;5.590;2022-08-19T18:23:24;4.07;;;1.70;;
29848;SDS011;16728;50.832;5.590;2022-08-19T18:26:45;2.22;;;1.33;;
29848;SDS011;16728;50.832;5.590;2022-08-19T18:29:48;2.77;;;1.57;;
29848;SDS011;16728;50.832;5.590;2022-08-19T18:32:50;2.00;;;1.73;;
29848;SDS011;16728;50.832;5.590;2022-08-19T18:38:55;3.58;;;1.35;;
29848;SDS011;16728;50.832;5.590;2022-08-19T18:42:16;1.88;;;1.45;;
29848;SDS011;16728;50.832;5.590;2022-08-19T18:45:45;1.48;;;1.27;;
29848;SDS011;16728;50.832;5.590;2022-08-19T18:49:08;1.95;;;1.30;;
29848;SDS011;16728;50.832;5.590;2022-08-19T18:52:11;1.10;;;1.00;;
29848;SDS011;16728;50.832;5.590;2022-08-19T18:55:14;2.97;;;1.48;;
29848;SDS011;16728;50.832;5.590;2022-08-19T18:58:18;1.60;;;1.35;;
29848;SDS011;16728;50.832;5.590;2022-08-19T19:01:35;1.98;;;1.42;;
29848;SDS011;16728;50.832;5.590;2022-08-19T19:04:41;3.50;;;1.60;;
29848;SDS011;16728;50.832;5.590;2022-08-19T19:07:45;2.88;;;1.90;;
29848;SDS011;16728;50.832;5.590;2022-08-19T19:10:48;3.28;;;1.63;;
29848;SDS011;16728;50.832;5.590;2022-08-19T19:13:51;4.93;;;2.20;;
29848;SDS011;16728;50.832;5.590;2022-08-19T19:16:53;2.30;;;2.07;;
29848;SDS011;16728;50.832;5.590;2022-08-19T19:19:55;3.63;;;2.60;;
29848;SDS011;16728;50.832;5.590;2022-08-19T19:22:57;4.32;;;2.25;;
29848;SDS011;16728;50.832;5.590;2022-08-19T19:25:59;2.72;;;2.40;;
29848;SDS011;16728;50.832;5.590;2022-08-19T19:29:01;4.75;;;2.40;;
29848;SDS011;16728;50.832;5.590;2022-08-19T19:32:04;2.55;;;2.35;;
29848;SDS011;16728;50.832;5.590;2022-08-19T19:35:07;2.50;;;2.30;;
29848;SDS011;16728;50.832;5.590;2022-08-19T19:38:27;4.22;;;3.60;;
29848;SDS011;16728;50.832;5.590;2022-08-19T19:41:29;3.40;;;3.08;;
29848;SDS011;16728;50.832;5.590;2022-08-19T19:44:36;4.53;;;3.10;;
29848;SDS011;16728;50.832;5.590;2022-08-19T19:48:00;3.88;;;3.55;;
29848;SDS011;16728;50.832;5.590;2022-08-19T19:51:02;4.50;;;3.88;;
29848;SDS011;16728;50.832;5.590;2022-08-19T19:54:05;4.70;;;4.20;;
29848;SDS011;16728;50.832;5.590;2022-08-19T19:57:09;4.57;;;4.18;;
29848;SDS011;16728;50.832;5.590;2022-08-19T20:00:12;4.50;;;4.07;;
29848;SDS011;16728;50.832;5.590;2022-08-19T20:03:16;5.22;;;4.38;;
29848;SDS011;16728;50.832;5.590;2022-08-19T20:06:19;5.53;;;4.65;;
29848;SDS011;16728;50.832;5.590;2022-08-19T20:09:21;6.35;;;5.30;;
29848;SDS011;16728;50.832;5.590;2022-08-19T20:12:45;9.38;;;5.50;;